Time;durP1;ratioP1;P1;durP2;ratioP2;P2;SDS_P1;SDS_P2;PMS_P1;PMS_P2;Temp;Humidity;BMP_temperature;BMP_pressure;BME280_temperature;BME280_humidity;BME280_pressure;Samples;Min_cycle;Max_cycle;Signal;HPM_P1;HPM_P2
2021/12/25 00:01:35;;;;;;;16.23;11.77;;;8.30;99.90;;;;;;5036210;28;20221;-81
2021/12/25 00:04:22;;;;;;;12.00;10.67;;;8.30;99.90;;;;;;5030926;28;20580;-81
2021/12/25 00:07:07;;;;;;;15.80;11.27;;;8.40;99.90;;;;;;5035758;28;20606;-81
2021/12/25 00:09:54;;;;;;;13.03;10.17;;;8.40;99.90;;;;;;5037105;28;20519;-81
2021/12/25 00:12:40;;;;;;;11.30;9.63;;;8.40;99.90;;;;;;5032513;28;21378;-80
2021/12/25 00:15:26;;;;;;;11.90;9.50;;;8.40;99.90;;;;;;5030660;28;20560;-80
2021/12/25 00:18:11;;;;;;;22.17;12.20;;;8.40;99.90;;;;;;5033971;28;20217;-81
2021/12/25 00:20:57;;;;;;;11.30;9.73;;;8.30;99.90;;;;;;5033214;28;21079;-81
2021/12/25 00:23:43;;;;;;;11.77;8.67;;;8.30;99.90;;;;;;5028941;28;20479;-81
2021/12/25 00:26:43;;;;;;;12.00;9.00;;;8.40;99.90;;;;;;5026756;28;20457;-80
2021/12/25 00:35:31;;;;;;;11.33;7.50;;;8.40;99.90;;;;;;5035111;28;20435;-80
2021/12/25 00:38:16;;;;;;;13.83;9.27;;;8.40;99.90;;;;;;5026307;28;20444;-80
2021/12/25 00:41:02;;;;;;;10.80;8.20;;;8.40;99.90;;;;;;5045020;28;20885;-80
2021/12/25 00:43:50;;;;;;;12.43;8.67;;;8.40;99.90;;;;;;5036861;28;20843;-81
2021/12/25 00:46:35;;;;;;;10.37;7.47;;;8.40;99.90;;;;;;5036454;28;20448;-81
2021/12/25 00:49:21;;;;;;;9.80;7.70;;;8.40;99.90;;;;;;5036962;28;20456;-81
2021/12/25 00:52:08;;;;;;;12.23;8.03;;;8.40;99.90;;;;;;5027154;28;20504;-80
2021/12/25 00:54:54;;;;;;;9.60;8.57;;;8.50;99.90;;;;;;5031173;28;20447;-81
2021/12/25 00:57:40;;;;;;;9.98;7.25;;;8.40;99.90;;;;;;5034875;28;20552;-82
2021/12/25 01:00:27;;;;;;;9.43;7.00;;;8.30;99.90;;;;;;5035954;28;20575;-80
2021/12/25 01:03:13;;;;;;;9.77;7.50;;;8.30;99.90;;;;;;5032266;28;20962;-81
2021/12/25 01:05:59;;;;;;;10.63;6.93;;;8.30;99.90;;;;;;5025550;28;20442;-81
2021/12/25 01:08:45;;;;;;;8.15;6.70;;;8.30;99.90;;;;;;5032944;28;20591;-81
2021/12/25 01:11:32;;;;;;;6.93;6.23;;;8.30;99.90;;;;;;5027265;28;20876;-80
2021/12/25 01:14:26;;;;;;;9.80;7.73;;;8.30;99.90;;;;;;5034105;28;20532;-81
2021/12/25 01:27:11;;;;;;;11.70;10.00;;;8.20;99.90;;;;;;5031324;28;20449;-81
2021/12/25 01:30:03;;;;;;;11.37;9.23;;;8.20;99.90;;;;;;5031980;28;20435;-81
2021/12/25 01:33:17;;;;;;;7.90;7.10;;;8.30;99.90;;;;;;5032669;28;20453;-80
2021/12/25 01:39:17;;;;;;;12.87;9.53;;;8.30;99.90;;;;;;5017709;28;20499;-83
2021/12/25 01:47:44;;;;;;;16.13;10.67;;;8.30;99.90;;;;;;5032993;28;20488;-81
2021/12/25 01:48:21;;;;;;;10.93;8.23;;;8.30;99.90;;;;;;5025604;28;20463;-81
2021/12/25 01:51:07;;;;;;;13.50;9.15;;;8.20;99.90;;;;;;5032239;28;20438;-80
2021/12/25 01:53:53;;;;;;;10.60;8.37;;;8.30;99.90;;;;;;5028712;28;20257;-80
2021/12/25 01:56:40;;;;;;;10.30;7.60;;;8.30;99.90;;;;;;5018656;28;20997;-80
2021/12/25 01:59:25;;;;;;;9.50;8.13;;;8.30;99.90;;;;;;5028006;28;20456;-80
2021/12/25 02:02:11;;;;;;;10.90;9.17;;;8.30;99.90;;;;;;5030219;28;20971;-80
2021/12/25 02:04:58;;;;;;;10.83;8.70;;;8.30;99.90;;;;;;5027710;28;21012;-81
2021/12/25 02:07:44;;;;;;;11.20;8.93;;;8.20;99.90;;;;;;5052768;22;21085;-73
2021/12/25 02:10:30;;;;;;;9.30;8.23;;;8.10;99.90;;;;;;5026017;28;20945;-73
2021/12/25 02:13:17;;;;;;;10.18;8.60;;;8.10;99.90;;;;;;5025267;28;20463;-73
2021/12/25 02:16:06;;;;;;;15.77;8.88;;;8.10;99.90;;;;;;5026668;28;20679;-72
2021/12/25 02:19:00;;;;;;;14.73;9.47;;;8.10;99.90;;;;;;5028226;28;20583;-72
2021/12/25 02:21:50;;;;;;;12.20;9.23;;;8.10;99.90;;;;;;5025869;28;21004;-73
2021/12/25 02:24:37;;;;;;;9.33;8.33;;;8.20;99.90;;;;;;5027133;28;20540;-73
2021/12/25 02:27:23;;;;;;;9.87;8.20;;;8.30;99.90;;;;;;5027406;28;20550;-73
2021/12/25 02:30:09;;;;;;;11.53;8.17;;;8.30;99.90;;;;;;5026833;28;20544;-73
2021/12/25 02:32:58;;;;;;;12.90;8.87;;;8.20;99.90;;;;;;5026428;28;20955;-73
2021/12/25 02:35:43;;;;;;;9.80;8.73;;;8.20;99.90;;;;;;5030247;28;20812;-73
2021/12/25 02:38:31;;;;;;;9.73;8.60;;;8.30;99.90;;;;;;5024474;28;21078;-73
2021/12/25 02:41:17;;;;;;;12.37;9.43;;;8.30;99.90;;;;;;5026172;28;20628;-73
2021/12/25 02:44:03;;;;;;;10.50;8.80;;;8.30;99.90;;;;;;5031143;28;20828;-73
2021/12/25 02:46:53;;;;;;;10.87;8.37;;;8.30;99.90;;;;;;5034565;28;20426;-73
2021/12/25 02:49:39;;;;;;;12.55;9.07;;;8.40;99.90;;;;;;5028857;28;20483;-73
2021/12/25 02:52:24;;;;;;;10.35;9.10;;;8.30;99.90;;;;;;5029686;28;20213;-73
2021/12/25 02:55:11;;;;;;;11.90;9.10;;;8.40;99.90;;;;;;5030651;28;20674;-73
2021/12/25 02:57:57;;;;;;;22.43;10.50;;;8.40;99.90;;;;;;5026707;28;20489;-73
2021/12/25 03:00:46;;;;;;;8.50;7.60;;;8.30;99.90;;;;;;5027752;28;20471;-73
2021/12/25 03:03:32;;;;;;;11.03;8.50;;;8.20;99.90;;;;;;5030984;28;20507;-73
2021/12/25 03:06:18;;;;;;;10.13;8.20;;;8.30;99.90;;;;;;5028166;28;20452;-73
2021/12/25 03:09:04;;;;;;;19.40;9.67;;;8.30;99.90;;;;;;5031156;28;20232;-73
2021/12/25 03:11:53;;;;;;;9.80;8.80;;;8.30;99.90;;;;;;5030811;28;20440;-73
2021/12/25 03:15:01;;;;;;;9.07;8.13;;;8.30;99.90;;;;;;5033920;28;20578;-73
2021/12/25 03:17:47;;;;;;;11.43;8.17;;;8.40;99.90;;;;;;5027303;28;20439;-73
2021/12/25 03:20:34;;;;;;;14.10;8.43;;;8.30;99.90;;;;;;5028728;28;20848;-73
2021/12/25 03:23:23;;;;;;;9.90;8.83;;;8.30;99.90;;;;;;5032422;28;20452;-72
2021/12/25 03:26:09;;;;;;;15.43;8.83;;;8.30;99.90;;;;;;5034730;28;20646;-73
2021/12/25 03:28:59;;;;;;;9.40;8.40;;;8.30;99.90;;;;;;5029899;28;20454;-73
2021/12/25 03:31:45;;;;;;;15.33;9.30;;;8.30;99.90;;;;;;5028305;28;20419;-73
2021/12/25 03:34:31;;;;;;;9.97;8.97;;;8.30;99.90;;;;;;5026806;28;20444;-72
2021/12/25 03:37:17;;;;;;;11.65;10.07;;;8.20;99.90;;;;;;5029301;28;20605;-73
2021/12/25 03:40:02;;;;;;;11.70;9.77;;;8.20;99.90;;;;;;5028994;28;20715;-73
2021/12/25 03:42:48;;;;;;;13.50;9.60;;;8.30;99.90;;;;;;5024152;28;20518;-73
2021/12/25 03:45:36;;;;;;;10.77;8.90;;;8.20;99.90;;;;;;5028011;28;20993;-73
2021/12/25 03:48:43;;;;;;;16.05;8.52;;;8.20;99.90;;;;;;5021619;28;21191;-73
2021/12/25 03:57:41;;;;;;;9.43;7.80;;;8.30;99.90;;;;;;5034641;28;20495;-73
2021/12/25 04:00:30;;;;;;;10.40;8.60;;;8.30;99.90;;;;;;5024521;28;20972;-72
2021/12/25 04:03:25;;;;;;;13.70;10.40;;;8.20;99.90;;;;;;5030575;28;20558;-73
2021/12/25 04:06:11;;;;;;;10.20;8.40;;;8.20;99.90;;;;;;5032273;28;20445;-73
2021/12/25 04:08:57;;;;;;;10.73;8.97;;;8.30;99.90;;;;;;5027144;28;20484;-73
2021/12/25 04:11:43;;;;;;;8.80;7.73;;;8.20;99.90;;;;;;5027732;28;20420;-73
2021/12/25 04:14:29;;;;;;;11.07;8.50;;;8.30;99.90;;;;;;5029673;28;20444;-73
2021/12/25 04:17:15;;;;;;;10.80;8.80;;;8.30;99.90;;;;;;5032470;28;20583;-73
2021/12/25 04:20:04;;;;;;;10.60;8.20;;;8.30;99.90;;;;;;5022078;28;20481;-73
2021/12/25 04:22:55;;;;;;;11.47;8.10;;;8.30;99.90;;;;;;5024622;28;20480;-73
2021/12/25 04:25:41;;;;;;;11.93;9.07;;;8.30;99.90;;;;;;5029678;28;20471;-73
2021/12/25 04:28:37;;;;;;;11.77;9.30;;;8.30;99.90;;;;;;5025203;28;20472;-73
2021/12/25 04:31:32;;;;;;;9.43;8.00;;;8.20;99.90;;;;;;5027725;28;20808;-73
2021/12/25 05:01:53;;;;;;;7.27;6.57;;;8.40;99.90;;;;;;5029094;28;20460;-73
2021/12/25 05:04:43;;;;;;;9.50;6.67;;;8.40;99.90;;;;;;5030279;28;20444;-73
2021/12/25 05:07:29;;;;;;;7.37;6.67;;;8.40;99.90;;;;;;5029894;28;20992;-73
2021/12/25 05:10:16;;;;;;;8.50;7.67;;;8.30;99.90;;;;;;5027351;28;20450;-73
2021/12/25 05:13:02;;;;;;;8.17;6.93;;;8.30;99.90;;;;;;5028819;28;20455;-73
2021/12/25 05:15:48;;;;;;;13.20;7.20;;;8.30;99.90;;;;;;5027763;28;20461;-73
2021/12/25 05:18:33;;;;;;;7.23;6.20;;;8.30;99.90;;;;;;5024652;28;20530;-73
2021/12/25 05:21:19;;;;;;;8.10;7.03;;;8.30;99.90;;;;;;5020231;28;20475;-73
2021/12/25 05:24:06;;;;;;;10.13;7.90;;;8.30;99.90;;;;;;5027598;28;20455;-73
2021/12/25 05:26:56;;;;;;;8.20;7.10;;;8.30;99.90;;;;;;5027370;28;20485;-73
2021/12/25 05:29:45;;;;;;;6.20;5.60;;;8.30;99.90;;;;;;5031159;28;20403;-73
2021/12/25 05:32:31;;;;;;;7.13;6.43;;;8.30;99.90;;;;;;5027719;28;20906;-72
2021/12/25 05:35:16;;;;;;;8.53;7.30;;;8.30;99.90;;;;;;5029242;28;20526;-73
2021/12/25 05:38:02;;;;;;;7.33;5.80;;;8.20;99.90;;;;;;5025168;28;20459;-73
2021/12/25 05:40:48;;;;;;;7.90;7.10;;;8.30;99.90;;;;;;5023909;28;20508;-73
2021/12/25 05:43:35;;;;;;;7.87;7.07;;;8.30;99.90;;;;;;5025435;28;20193;-73
2021/12/25 05:46:22;;;;;;;8.40;7.00;;;8.20;99.90;;;;;;5029175;28;21178;-73
2021/12/25 05:49:08;;;;;;;9.73;6.20;;;8.30;99.90;;;;;;5025713;28;20483;-73
2021/12/25 05:51:53;;;;;;;7.80;6.67;;;8.30;99.90;;;;;;5027590;28;20456;-73
2021/12/25 05:54:39;;;;;;;8.50;6.73;;;8.20;99.90;;;;;;5030339;28;21127;-73
2021/12/25 05:57:24;;;;;;;10.60;9.50;;;8.20;99.90;;;;;;5026054;28;20562;-73
2021/12/25 06:00:12;;;;;;;9.67;8.67;;;8.20;99.90;;;;;;5029689;28;20531;-73
2021/12/25 06:02:58;;;;;;;10.17;8.10;;;8.20;99.90;;;;;;5030854;28;20479;-73
2021/12/25 06:05:44;;;;;;;8.87;7.20;;;8.10;99.90;;;;;;5022492;28;20461;-72
2021/12/25 06:08:30;;;;;;;9.43;8.07;;;8.20;99.90;;;;;;5018485;28;20535;-73
2021/12/25 06:11:16;;;;;;;11.10;9.30;;;8.30;99.90;;;;;;5030838;28;20426;-73
2021/12/25 06:14:09;;;;;;;10.80;6.97;;;8.30;99.90;;;;;;5026827;28;21000;-73
2021/12/25 06:16:56;;;;;;;9.03;6.80;;;8.30;99.90;;;;;;5026529;28;20641;-73
2021/12/25 06:19:42;;;;;;;8.90;8.00;;;8.30;99.90;;;;;;5022613;28;21185;-72
2021/12/25 06:22:27;;;;;;;7.97;6.83;;;8.30;99.90;;;;;;5029223;28;20583;-72
2021/12/25 06:25:13;;;;;;;10.53;6.90;;;8.30;99.90;;;;;;5031384;28;20526;-73
2021/12/25 06:27:59;;;;;;;6.43;5.73;;;8.40;99.90;;;;;;5027980;28;20591;-73
2021/12/25 06:30:45;;;;;;;7.77;6.97;;;8.40;99.90;;;;;;5030635;28;20508;-73
2021/12/25 06:33:32;;;;;;;7.93;6.40;;;8.40;99.90;;;;;;5030584;28;20517;-73
2021/12/25 06:36:18;;;;;;;9.17;6.70;;;8.30;99.90;;;;;;5024000;28;20470;-73
2021/12/25 06:39:05;;;;;;;8.60;7.43;;;8.30;99.90;;;;;;5030740;28;21051;-73
2021/12/25 06:41:51;;;;;;;9.75;7.97;;;8.30;99.90;;;;;;5029399;28;20430;-73
2021/12/25 06:44:37;;;;;;;9.10;6.40;;;8.30;99.90;;;;;;5026521;28;20324;-72
2021/12/25 06:47:23;;;;;;;10.00;6.53;;;8.30;99.90;;;;;;5027350;28;20555;-72
2021/12/25 06:50:11;;;;;;;9.00;7.73;;;8.30;99.90;;;;;;5022998;28;20218;-73
2021/12/25 06:52:57;;;;;;;6.70;5.90;;;8.30;99.90;;;;;;5029567;28;20432;-73
2021/12/25 06:55:42;;;;;;;8.30;6.97;;;8.30;99.90;;;;;;5027238;28;20975;-73
2021/12/25 06:58:28;;;;;;;7.87;6.70;;;8.30;99.90;;;;;;5026443;28;20471;-73
2021/12/25 07:01:14;;;;;;;11.90;6.33;;;8.30;99.90;;;;;;5030718;28;20422;-73
2021/12/25 07:04:00;;;;;;;6.80;6.10;;;8.40;99.90;;;;;;5029781;28;20415;-73
2021/12/25 07:06:47;;;;;;;9.93;8.37;;;8.40;99.90;;;;;;5026840;28;20430;-73
2021/12/25 07:09:32;;;;;;;19.20;8.00;;;8.30;99.90;;;;;;5029607;28;20452;-73
2021/12/25 07:12:19;;;;;;;10.60;7.63;;;8.20;99.90;;;;;;5021659;28;20446;-73
2021/12/25 07:15:05;;;;;;;11.10;8.03;;;8.20;99.90;;;;;;5029503;28;20459;-73
2021/12/25 07:17:51;;;;;;;8.23;7.10;;;8.20;99.90;;;;;;5020009;28;20828;-73
2021/12/25 07:20:36;;;;;;;6.93;6.07;;;8.20;99.90;;;;;;5028297;28;20205;-73
2021/12/25 07:23:23;;;;;;;7.37;6.63;;;8.20;99.90;;;;;;5022078;28;20503;-73
2021/12/25 07:26:09;;;;;;;8.60;7.70;;;8.30;99.90;;;;;;5030441;28;20972;-73
2021/12/25 07:28:54;;;;;;;7.50;6.70;;;8.30;99.90;;;;;;5031019;28;20475;-73
2021/12/25 07:31:40;;;;;;;6.80;6.10;;;8.30;99.90;;;;;;5034843;28;20429;-73
2021/12/25 07:34:26;;;;;;;7.20;6.07;;;8.30;99.90;;;;;;5032057;28;20517;-73
2021/12/25 07:37:13;;;;;;;8.40;7.03;;;8.40;99.90;;;;;;5031349;28;20918;-73
2021/12/25 07:40:00;;;;;;;8.27;6.93;;;8.40;99.90;;;;;;5025646;28;20457;-73
2021/12/25 07:42:46;;;;;;;7.20;6.50;;;8.40;99.90;;;;;;5026837;28;20480;-73
2021/12/25 07:45:32;;;;;;;8.70;6.37;;;8.40;99.90;;;;;;5026832;28;20443;-73
2021/12/25 07:48:20;;;;;;;7.00;6.17;;;8.30;99.90;;;;;;5024043;28;20483;-73
2021/12/25 07:51:05;;;;;;;14.10;6.60;;;8.40;99.90;;;;;;5034362;28;20769;-73
2021/12/25 07:53:51;;;;;;;7.03;6.33;;;8.30;99.90;;;;;;5031452;28;20546;-73
2021/12/25 07:56:39;;;;;;;6.30;5.70;;;8.30;99.90;;;;;;5031228;28;20452;-73
2021/12/25 07:59:24;;;;;;;6.90;6.18;;;8.30;99.90;;;;;;5032192;28;20527;-73
2021/12/25 08:02:11;;;;;;;6.20;5.53;;;8.40;99.90;;;;;;5031629;28;20291;-73
2021/12/25 08:04:56;;;;;;;7.10;5.63;;;8.40;99.90;;;;;;5033129;28;20791;-73
2021/12/25 08:07:43;;;;;;;6.60;5.60;;;8.40;99.90;;;;;;5052071;22;21185;-79
2021/12/25 08:10:28;;;;;;;11.50;5.90;;;8.30;99.90;;;;;;5037076;28;20429;-79
2021/12/25 08:13:16;;;;;;;6.27;5.30;;;8.30;99.90;;;;;;5020817;28;20794;-77
2021/12/25 08:16:02;;;;;;;6.73;5.43;;;8.30;99.90;;;;;;5026180;28;20810;-77
2021/12/25 08:18:47;;;;;;;6.37;5.43;;;8.30;99.90;;;;;;5010606;28;20970;-75
2021/12/25 08:21:33;;;;;;;7.93;5.47;;;8.30;99.90;;;;;;5012360;28;20826;-75
2021/12/25 08:24:20;;;;;;;10.13;5.90;;;8.30;99.90;;;;;;5012805;28;20420;-78
2021/12/25 08:27:06;;;;;;;6.33;4.70;;;8.40;99.90;;;;;;5019697;28;20568;-78
2021/12/25 08:29:53;;;;;;;10.30;5.57;;;8.40;99.90;;;;;;5013300;28;20460;-78
2021/12/25 08:32:40;;;;;;;7.20;6.00;;;8.20;99.90;;;;;;5013782;28;20449;-79
2021/12/25 08:35:28;;;;;;;7.10;6.40;;;8.20;99.90;;;;;;5010785;28;20524;-78
2021/12/25 08:38:14;;;;;;;7.37;6.57;;;8.20;99.90;;;;;;5011477;28;20476;-78
2021/12/25 08:41:00;;;;;;;8.33;6.67;;;8.30;99.90;;;;;;5009079;28;20499;-79
2021/12/25 08:43:48;;;;;;;9.03;6.97;;;8.40;99.90;;;;;;5007307;28;20474;-79
2021/12/25 08:49:38;;;;;;;10.47;7.87;;;8.50;99.90;;;;;;5003891;28;20490;-79
2021/12/25 08:52:26;;;;;;;18.43;11.07;;;8.50;99.90;;;;;;5011681;28;20461;-78
2021/12/25 08:55:11;;;;;;;13.10;9.30;;;8.50;99.90;;;;;;5007706;28;20460;-78
2021/12/25 08:57:57;;;;;;;15.40;9.77;;;8.50;99.90;;;;;;5012282;28;21018;-79
2021/12/25 09:00:43;;;;;;;16.50;10.17;;;8.50;99.90;;;;;;5005191;28;20532;-78
2021/12/25 09:03:31;;;;;;;15.90;9.50;;;8.60;99.90;;;;;;5011960;28;20548;-76
2021/12/25 09:06:16;;;;;;;20.80;13.53;;;8.60;99.90;;;;;;5007153;28;20803;-78
2021/12/25 09:09:02;;;;;;;23.03;12.63;;;8.50;99.90;;;;;;5007633;28;20456;-79
2021/12/25 09:11:48;;;;;;;20.07;14.70;;;8.50;99.90;;;;;;5009770;28;20892;-79
2021/12/25 09:14:34;;;;;;;17.20;11.40;;;8.60;99.90;;;;;;5004744;28;20424;-74
2021/12/25 09:17:19;;;;;;;16.83;10.77;;;8.70;99.90;;;;;;5006524;28;20539;-78
2021/12/25 09:20:08;;;;;;;16.00;10.03;;;8.60;99.90;;;;;;5009673;28;20457;-77
2021/12/25 09:22:54;;;;;;;15.53;11.67;;;8.60;99.90;;;;;;5010249;28;20469;-77
2021/12/25 09:25:39;;;;;;;16.10;10.93;;;8.60;99.90;;;;;;5008377;28;20544;-78
2021/12/25 09:28:25;;;;;;;14.03;9.43;;;8.70;99.90;;;;;;5009625;28;20477;-78
2021/12/25 09:31:11;;;;;;;12.57;9.20;;;8.70;99.90;;;;;;5011566;28;20453;-78
2021/12/25 09:33:57;;;;;;;12.50;8.43;;;8.70;99.90;;;;;;5008499;28;20570;-78
2021/12/25 09:36:44;;;;;;;13.07;8.70;;;8.70;99.90;;;;;;5011301;28;20419;-79
2021/12/25 09:39:30;;;;;;;14.33;8.70;;;8.70;99.90;;;;;;5006460;28;20437;-78
2021/12/25 09:42:15;;;;;;;10.40;9.07;;;8.80;99.90;;;;;;5009597;28;20575;-78
2021/12/25 09:45:01;;;;;;;16.10;10.00;;;8.80;99.90;;;;;;5007459;28;20453;-77
2021/12/25 09:47:47;;;;;;;11.47;8.10;;;8.80;99.90;;;;;;5010388;28;20860;-78
2021/12/25 09:50:32;;;;;;;8.00;7.00;;;8.90;99.90;;;;;;5007987;28;20460;-77
2021/12/25 09:53:20;;;;;;;11.50;7.13;;;8.90;99.90;;;;;;5007180;28;20867;-78
2021/12/25 09:56:06;;;;;;;11.30;8.40;;;8.90;99.90;;;;;;5008914;28;20439;-78
2021/12/25 09:58:52;;;;;;;9.50;8.50;;;8.90;99.90;;;;;;5010680;28;20817;-77
2021/12/25 10:01:40;;;;;;;10.87;8.53;;;8.90;99.90;;;;;;5008662;28;20507;-77
2021/12/25 10:04:35;;;;;;;10.23;7.80;;;8.90;99.90;;;;;;5008418;28;20485;-77
2021/12/25 10:07:24;;;;;;;7.10;6.40;;;9.00;99.90;;;;;;5008341;28;20452;-78
2021/12/25 10:10:14;;;;;;;7.53;6.20;;;9.00;99.90;;;;;;5012333;28;20410;-79
2021/12/25 10:13:00;;;;;;;6.03;5.07;;;9.00;99.90;;;;;;5008266;28;20453;-79
2021/12/25 10:15:46;;;;;;;5.40;4.20;;;9.00;99.90;;;;;;5009003;28;21037;-77
2021/12/25 10:18:34;;;;;;;5.00;3.97;;;8.90;99.90;;;;;;5008486;28;20492;-76
2021/12/25 10:21:23;;;;;;;4.40;3.73;;;8.90;99.90;;;;;;5009775;28;20416;-75
2021/12/25 10:24:13;;;;;;;3.87;3.10;;;8.90;99.90;;;;;;5007603;28;21166;-76
2021/12/25 10:27:13;;;;;;;3.83;2.87;;;8.90;99.90;;;;;;5011517;28;20425;-75
2021/12/25 10:30:01;;;;;;;4.80;4.00;;;8.80;99.90;;;;;;5006791;28;20461;-76
2021/12/25 10:32:48;;;;;;;4.20;3.67;;;8.80;99.90;;;;;;5007571;28;20453;-75
2021/12/25 10:35:38;;;;;;;4.00;3.60;;;8.80;99.90;;;;;;5003240;28;20595;-75
2021/12/25 10:38:24;;;;;;;4.30;3.40;;;8.70;99.90;;;;;;5003754;28;20591;-75
2021/12/25 10:41:22;;;;;;;4.10;3.50;;;8.70;99.90;;;;;;5008436;28;20810;-75
2021/12/25 10:44:15;;;;;;;3.33;2.70;;;8.60;99.90;;;;;;5006677;28;20477;-76
2021/12/25 10:47:02;;;;;;;4.30;2.83;;;8.50;99.90;;;;;;5006605;28;20202;-74
2021/12/25 10:49:52;;;;;;;2.90;2.00;;;8.40;99.90;;;;;;5007437;28;20326;-78
2021/12/25 10:52:41;;;;;;;3.53;1.97;;;8.30;99.90;;;;;;5004602;28;21372;-77
2021/12/25 10:55:27;;;;;;;2.60;2.23;;;8.20;99.90;;;;;;4998720;28;20485;-78
2021/12/25 10:58:20;;;;;;;2.92;2.13;;;8.00;99.90;;;;;;5011096;28;20457;-75
2021/12/25 11:01:08;;;;;;;2.80;2.40;;;8.00;99.90;;;;;;5014641;28;20202;-74
2021/12/25 11:03:54;;;;;;;3.95;2.75;;;8.00;99.90;;;;;;5009125;28;21963;-74
2021/12/25 11:06:43;;;;;;;3.47;2.60;;;7.90;99.90;;;;;;5015308;28;20206;-74
2021/12/25 11:09:28;;;;;;;2.97;2.55;;;7.90;99.90;;;;;;5008950;28;20233;-75
2021/12/25 11:12:19;;;;;;;4.25;3.10;;;7.80;99.90;;;;;;5005862;28;20273;-76
2021/12/25 11:15:26;;;;;;;3.60;2.78;;;7.60;99.90;;;;;;5009784;28;20199;-74
2021/12/25 11:18:15;;;;;;;4.30;3.30;;;7.60;99.90;;;;;;5014187;28;20221;-75
2021/12/25 11:21:09;;;;;;;4.88;2.70;;;7.60;99.90;;;;;;5014380;28;20257;-77
2021/12/25 11:24:08;;;;;;;3.75;3.05;;;7.50;99.90;;;;;;5003394;28;20229;-77
2021/12/25 11:26:57;;;;;;;5.38;3.33;;;7.50;99.90;;;;;;5013288;28;20226;-75
2021/12/25 11:29:43;;;;;;;3.70;3.15;;;7.50;99.90;;;;;;5014901;28;20592;-76
2021/12/25 11:32:29;;;;;;;4.77;3.40;;;7.30;99.90;;;;;;5010950;28;20205;-76
2021/12/25 11:35:16;;;;;;;3.75;3.22;;;7.30;99.90;;;;;;5007065;28;20460;-76
2021/12/25 11:38:04;;;;;;;4.50;3.53;;;7.30;99.90;;;;;;5012560;28;20710;-76
2021/12/25 11:40:53;;;;;;;3.90;2.67;;;7.30;99.90;;;;;;5015045;28;20425;-76
2021/12/25 11:43:43;;;;;;;5.10;3.00;;;7.40;99.90;;;;;;5011794;28;20233;-79
2021/12/25 11:46:38;;;;;;;3.50;2.70;;;7.40;99.90;;;;;;4996699;28;20199;-75
2021/12/25 11:49:24;;;;;;;3.55;2.85;;;7.40;99.90;;;;;;5006125;28;20334;-78
2021/12/25 11:52:18;;;;;;;3.80;3.40;;;7.50;99.90;;;;;;5005824;28;20214;-78
2021/12/25 11:55:49;;;;;;;3.90;3.50;;;7.50;99.90;;;;;;5012595;28;20222;-77
2021/12/25 11:58:39;;;;;;;4.90;3.17;;;7.50;99.90;;;;;;5009650;28;20848;-78
2021/12/25 12:01:29;;;;;;;3.10;2.40;;;7.50;99.90;;;;;;5007354;28;20449;-78
2021/12/25 12:04:17;;;;;;;3.90;3.40;;;7.40;99.90;;;;;;5009282;28;20210;-78
2021/12/25 12:07:12;;;;;;;3.80;2.83;;;7.40;99.90;;;;;;5011759;28;20978;-76
2021/12/25 12:10:03;;;;;;;6.05;2.72;;;7.30;99.90;;;;;;5010796;28;20206;-80
2021/12/25 12:12:48;;;;;;;2.70;2.20;;;7.30;99.90;;;;;;5009682;28;20194;-74
2021/12/25 12:15:45;;;;;;;3.47;2.85;;;7.30;99.90;;;;;;5015306;28;20702;-79
2021/12/25 12:18:40;;;;;;;3.25;2.75;;;7.30;99.90;;;;;;5008095;28;20220;-78
2021/12/25 12:21:35;;;;;;;3.45;3.00;;;7.30;99.90;;;;;;5009272;28;20198;-78
2021/12/25 12:24:49;;;;;;;3.50;2.57;;;7.30;99.90;;;;;;5009142;28;20226;-78
2021/12/25 12:27:38;;;;;;;3.73;2.93;;;7.30;99.90;;;;;;5003209;28;20461;-78
2021/12/25 12:30:44;;;;;;;3.22;2.80;;;7.20;99.90;;;;;;5007853;28;20544;-79
2021/12/25 12:33:37;;;;;;;3.80;2.50;;;7.10;99.90;;;;;;5009678;28;20578;-79
2021/12/25 12:36:26;;;;;;;2.63;2.33;;;7.00;99.90;;;;;;5014798;28;20676;-78
2021/12/25 12:39:19;;;;;;;3.35;2.53;;;6.90;99.90;;;;;;5010522;28;20477;-79
2021/12/25 12:42:08;;;;;;;2.80;2.50;;;6.90;99.90;;;;;;5008704;28;20339;-78
2021/12/25 12:45:08;;;;;;;3.10;2.40;;;6.90;99.90;;;;;;5009861;28;20542;-78
2021/12/25 12:48:15;;;;;;;2.90;2.60;;;6.90;99.90;;;;;;5008969;28;20222;-78
2021/12/25 12:51:01;;;;;;;2.92;2.40;;;6.90;99.90;;;;;;5007429;28;20549;-79
2021/12/25 12:53:48;;;;;;;5.07;2.30;;;6.90;99.90;;;;;;5006207;28;20581;-79
2021/12/25 12:56:34;;;;;;;3.13;2.60;;;6.90;99.90;;;;;;5012776;28;20257;-80
2021/12/25 12:59:20;;;;;;;2.93;2.57;;;6.80;99.90;;;;;;5009581;28;20813;-77
2021/12/25 13:02:07;;;;;;;3.58;2.75;;;6.80;99.90;;;;;;5006259;28;20450;-78
2021/12/25 13:04:57;;;;;;;2.85;2.55;;;6.80;99.90;;;;;;5006424;28;20711;-78
2021/12/25 13:07:45;;;;;;;2.93;2.63;;;6.80;99.90;;;;;;5008795;28;20242;-78
2021/12/25 13:10:37;;;;;;;3.53;3.10;;;6.70;99.90;;;;;;5008529;28;20454;-79
2021/12/25 13:13:28;;;;;;;4.00;2.67;;;6.60;99.90;;;;;;5005992;28;20258;-79
2021/12/25 13:16:17;;;;;;;3.25;2.95;;;6.60;99.90;;;;;;5007545;28;20209;-78
2021/12/25 13:19:05;;;;;;;3.45;3.15;;;6.60;99.90;;;;;;5010516;28;20230;-78
2021/12/25 13:21:50;;;;;;;3.05;2.70;;;6.60;99.90;;;;;;5009695;28;20577;-79
2021/12/25 13:24:36;;;;;;;6.45;3.20;;;6.70;99.90;;;;;;5008405;28;20210;-79
2021/12/25 13:27:21;;;;;;;9.80;3.40;;;6.70;99.90;;;;;;5008159;28;20284;-78
2021/12/25 13:30:16;;;;;;;3.37;2.97;;;6.70;99.90;;;;;;5012478;28;20257;-78
2021/12/25 13:33:10;;;;;;;4.70;3.22;;;6.60;99.90;;;;;;5004926;28;20427;-74
2021/12/25 13:36:05;;;;;;;4.30;3.70;;;6.60;99.90;;;;;;5005351;28;20350;-75
2021/12/25 13:38:53;;;;;;;4.50;3.75;;;6.60;99.90;;;;;;5008669;28;20807;-74
2021/12/25 13:41:41;;;;;;;4.20;3.60;;;6.60;99.90;;;;;;5006890;28;20207;-74
2021/12/25 13:44:29;;;;;;;6.68;3.75;;;6.50;99.90;;;;;;5003028;28;20214;-73
2021/12/25 13:47:24;;;;;;;4.50;3.67;;;6.50;99.90;;;;;;5006372;28;20206;-73
2021/12/25 13:50:10;;;;;;;3.42;3.13;;;6.40;99.90;;;;;;5001623;28;20206;-73
2021/12/25 13:53:00;;;;;;;5.55;3.63;;;6.30;99.90;;;;;;5007143;28;20206;-73
2021/12/25 13:55:49;;;;;;;6.10;3.38;;;6.30;99.90;;;;;;5007539;28;20862;-73
2021/12/25 13:58:35;;;;;;;9.65;3.63;;;6.40;99.90;;;;;;5006151;28;20226;-73
2021/12/25 14:01:20;;;;;;;6.20;3.70;;;6.40;99.90;;;;;;5004768;28;20206;-78
2021/12/25 14:04:08;;;;;;;4.10;3.60;;;6.50;99.90;;;;;;5007426;28;20312;-77
2021/12/25 14:06:54;;;;;;;4.22;3.03;;;6.50;99.90;;;;;;5009461;28;20210;-78
2021/12/25 14:09:53;;;;;;;6.30;4.65;;;6.40;99.90;;;;;;5062228;22;20240;-75
2021/12/25 14:12:41;;;;;;;5.20;2.97;;;6.40;99.90;;;;;;5042776;28;20204;-76
2021/12/25 14:15:30;;;;;;;4.70;3.20;;;6.40;99.90;;;;;;5046539;28;20197;-76
2021/12/25 14:18:16;;;;;;;5.75;3.28;;;6.50;99.90;;;;;;5046744;28;20271;-76
2021/12/25 14:21:17;;;;;;;4.43;3.60;;;6.40;99.90;;;;;;5040388;28;20201;-76
2021/12/25 14:24:05;;;;;;;4.10;3.47;;;6.30;99.90;;;;;;5044889;28;20225;-77
2021/12/25 14:27:06;;;;;;;3.65;3.05;;;6.30;99.90;;;;;;5045848;28;20303;-77
2021/12/25 14:30:04;;;;;;;4.30;3.10;;;6.20;99.90;;;;;;5043624;28;20677;-77
2021/12/25 14:32:50;;;;;;;3.50;3.20;;;6.30;99.90;;;;;;5041977;28;20201;-77
2021/12/25 14:35:39;;;;;;;4.60;3.30;;;6.20;99.90;;;;;;5045843;28;20255;-77
2021/12/25 14:38:25;;;;;;;5.13;2.88;;;6.20;99.90;;;;;;5042463;28;20483;-77
2021/12/25 14:41:11;;;;;;;3.95;3.15;;;6.10;99.90;;;;;;5047157;28;20395;-77
2021/12/25 14:43:58;;;;;;;3.65;2.85;;;6.10;99.90;;;;;;5045037;28;20208;-76
2021/12/25 14:46:45;;;;;;;7.68;4.68;;;6.10;99.90;;;;;;5047688;28;20209;-77
2021/12/25 14:49:36;;;;;;;4.03;3.08;;;6.10;99.90;;;;;;5041081;28;20231;-76
2021/12/25 14:52:22;;;;;;;6.63;4.65;;;6.20;99.90;;;;;;5039246;28;20733;-76
2021/12/25 14:55:17;;;;;;;29.50;18.98;;;6.20;99.90;;;;;;5045128;28;20866;-77
2021/12/25 14:58:12;;;;;;;137.45;97.03;;;6.10;99.90;;;;;;5044929;28;20264;-77
2021/12/25 15:01:12;;;;;;;11.55;7.75;;;6.10;99.90;;;;;;5038647;28;20709;-75
2021/12/25 15:04:05;;;;;;;4.43;3.40;;;6.10;99.90;;;;;;5038553;28;20602;-76
2021/12/25 15:06:54;;;;;;;72.57;45.90;;;6.10;99.90;;;;;;5048875;28;20216;-77
2021/12/25 15:09:42;;;;;;;14.38;10.75;;;6.10;99.90;;;;;;5049463;28;20483;-77
2021/12/25 15:12:30;;;;;;;8.35;5.65;;;6.10;99.90;;;;;;5035659;28;20216;-77
2021/12/25 15:15:16;;;;;;;15.18;9.18;;;6.00;99.90;;;;;;5040022;28;20658;-77
2021/12/25 15:18:03;;;;;;;18.38;13.90;;;5.90;99.90;;;;;;5047644;28;20217;-77
2021/12/25 15:20:49;;;;;;;12.30;11.00;;;5.80;99.90;;;;;;5042398;28;20204;-74
2021/12/25 15:23:35;;;;;;;6.88;5.60;;;5.80;99.90;;;;;;5046999;28;20209;-74
2021/12/25 15:26:21;;;;;;;4.65;4.25;;;5.80;99.90;;;;;;5044809;28;20332;-78
2021/12/25 15:29:07;;;;;;;5.95;5.00;;;5.70;99.90;;;;;;5044340;28;20229;-77
2021/12/25 15:32:00;;;;;;;5.53;5.03;;;5.70;99.90;;;;;;5049602;28;20725;-77
2021/12/25 15:34:56;;;;;;;7.07;6.38;;;5.70;99.90;;;;;;5041591;28;20196;-75
2021/12/25 15:37:45;;;;;;;6.90;6.30;;;5.70;99.90;;;;;;5045955;28;20208;-74
2021/12/25 15:40:32;;;;;;;5.30;4.80;;;5.70;99.90;;;;;;5049762;28;20568;-78
2021/12/25 15:43:18;;;;;;;6.78;5.00;;;5.70;99.90;;;;;;5040871;28;20196;-78